createdAt,value
2019-02-28T00:01:03.041Z,98.90
2019-02-28T00:03:31.555Z,99.10
2019-02-28T00:06:00.168Z,99.10
2019-02-28T00:08:28.716Z,98.80
2019-02-28T00:10:57.175Z,98.80
2019-02-28T00:13:25.626Z,98.60
2019-02-28T00:15:54.177Z,98.30
2019-02-28T00:18:22.664Z,98.40
2019-02-28T00:20:51.187Z,98.40
2019-02-28T00:23:22.041Z,98.40
2019-02-28T00:25:49.950Z,98.50
2019-02-28T00:28:18.392Z,98.50
2019-02-28T00:30:46.868Z,98.70
2019-02-28T00:33:15.387Z,98.80
2019-02-28T00:35:44.676Z,98.70
2019-02-28T00:38:13.988Z,98.70
2019-02-28T00:40:42.433Z,98.70
2019-02-28T00:43:10.876Z,98.80
2019-02-28T00:45:39.425Z,98.80
2019-02-28T00:48:07.867Z,98.80
2019-02-28T00:50:36.313Z,98.60
2019-02-28T00:53:06.494Z,98.70
2019-02-28T00:55:35.253Z,98.70
2019-02-28T00:58:03.704Z,99.10
2019-02-28T01:00:32.296Z,99.50
2019-02-28T01:03:00.799Z,99.30
2019-02-28T01:05:29.315Z,99.20
2019-02-28T01:07:57.948Z,99.20
2019-02-28T01:10:26.527Z,98.90
2019-02-28T01:12:54.967Z,99.00
2019-02-28T01:15:23.601Z,99.30
2019-02-28T01:17:52.047Z,99.20
2019-02-28T01:20:20.551Z,98.90
2019-02-28T01:22:49.079Z,98.80
2019-02-28T01:25:18.467Z,98.60
2019-02-28T01:27:47.011Z,98.50
2019-02-28T01:30:16.720Z,98.50
2019-02-28T01:32:49.772Z,98.50
2019-02-28T01:35:16.672Z,98.70
2019-02-28T01:37:45.133Z,98.80
2019-02-28T01:40:15.275Z,98.80
2019-02-28T01:42:43.790Z,98.80
2019-02-28T01:45:13.513Z,99.00
2019-02-28T01:47:42.090Z,99.00
2019-02-28T01:50:12.067Z,99.20
2019-02-28T01:52:44.333Z,99.30
2019-02-28T01:55:11.923Z,99.20
2019-02-28T01:57:44.158Z,99.00
2019-02-28T02:00:15.940Z,99.00
2019-02-28T02:02:44.456Z,98.90
2019-02-28T02:05:12.987Z,98.80
2019-02-28T02:07:41.525Z,98.90
2019-02-28T02:10:20.413Z,99.00
2019-02-28T02:12:47.884Z,99.00
2019-02-28T02:15:17.041Z,98.90
2019-02-28T02:17:46.482Z,98.90
2019-02-28T02:20:15.983Z,99.20
2019-02-28T02:22:45.333Z,99.20
2019-02-28T02:25:14.272Z,99.40
2019-02-28T02:27:42.864Z,99.40
2019-02-28T02:30:35.313Z,99.60
2019-02-28T02:33:03.901Z,99.50
2019-02-28T02:35:32.426Z,99.80
2019-02-28T02:38:03.637Z,99.40
2019-02-28T02:40:31.253Z,99.80
2019-02-28T02:42:59.704Z,99.40
2019-02-28T02:45:28.144Z,99.50
2019-02-28T02:47:56.628Z,99.40
2019-02-28T02:50:25.074Z,99.30
2019-02-28T02:52:53.519Z,99.30
2019-02-28T02:55:27.893Z,99.30
2019-02-28T02:57:52.153Z,99.10
2019-02-28T03:00:20.836Z,99.20
2019-02-28T03:02:49.571Z,99.30
2019-02-28T03:05:18.102Z,99.50
2019-02-28T03:07:46.536Z,99.40
2019-02-28T03:10:20.547Z,99.40
2019-02-28T03:12:49.006Z,99.50
2019-02-28T03:15:25.190Z,99.60
2019-02-28T03:17:48.857Z,99.60
2019-02-28T03:20:17.683Z,99.50
2019-02-28T03:22:46.132Z,99.20
2019-02-28T03:25:18.199Z,99.70
2019-02-28T03:27:46.717Z,99.60
2019-02-28T03:30:29.273Z,99.60
2019-02-28T03:32:47.968Z,99.60
2019-02-28T03:35:16.521Z,99.50
2019-02-28T03:37:45.371Z,99.60
2019-02-28T03:40:39.728Z,99.90
2019-02-28T03:43:06.754Z,99.90
2019-02-28T03:45:35.383Z,99.90
2019-02-28T03:48:04.153Z,99.90
2019-02-28T03:50:32.599Z,99.80
2019-02-28T03:53:01.041Z,99.80
2019-02-28T03:55:29.579Z,99.60
2019-02-28T03:58:03.917Z,99.80
2019-02-28T04:00:32.406Z,99.80
2019-02-28T04:02:59.144Z,99.70
2019-02-28T04:05:28.528Z,99.70
2019-02-28T04:07:57.082Z,99.80
2019-02-28T04:10:25.577Z,99.70
2019-02-28T04:12:54.040Z,99.60
2019-02-28T04:15:23.067Z,99.60
2019-02-28T04:17:51.597Z,99.70
2019-02-28T04:20:20.066Z,99.60
2019-02-28T04:22:48.629Z,99.80
2019-02-28T04:25:22.758Z,99.90
2019-02-28T04:27:47.284Z,99.90
2019-02-28T04:30:15.898Z,99.90
2019-02-28T04:32:44.365Z,99.90
2019-02-28T04:35:13.120Z,99.90
2019-02-28T04:37:46.814Z,99.90
2019-02-28T04:40:14.694Z,99.90
2019-02-28T04:42:43.308Z,99.90
2019-02-28T04:45:35.565Z,99.90
2019-02-28T04:48:04.089Z,99.90
2019-02-28T04:50:32.524Z,99.90
2019-02-28T04:53:01.067Z,99.90
2019-02-28T04:55:30.623Z,99.90
2019-02-28T04:57:59.397Z,99.90
2019-02-28T05:00:27.916Z,99.90
2019-02-28T05:02:56.357Z,99.90
2019-02-28T05:05:24.951Z,99.90
2019-02-28T05:07:53.423Z,99.90
2019-02-28T05:10:22.256Z,99.90
2019-02-28T05:12:51.500Z,99.90
2019-02-28T05:15:20.040Z,99.90
2019-02-28T05:17:48.488Z,99.90
2019-02-28T05:20:16.973Z,99.90
2019-02-28T05:22:45.440Z,99.90
2019-02-28T05:25:17.747Z,99.90
2019-02-28T05:27:44.051Z,99.90
2019-02-28T05:30:17.971Z,99.90
2019-02-28T05:33:06.600Z,99.90
2019-02-28T05:35:33.895Z,99.90
2019-02-28T05:38:02.346Z,99.90
2019-02-28T05:40:30.800Z,99.90
2019-02-28T05:42:59.273Z,99.90
2019-02-28T05:45:27.707Z,99.90
2019-02-28T05:47:56.155Z,99.90
2019-02-28T05:50:24.632Z,99.90
2019-02-28T05:52:53.090Z,99.90
2019-02-28T05:55:24.852Z,99.90
2019-02-28T05:57:51.724Z,99.90
2019-02-28T06:00:21.875Z,99.90
2019-02-28T06:02:50.334Z,99.90
2019-02-28T06:05:18.807Z,99.90
2019-02-28T06:07:47.327Z,99.90
2019-02-28T06:10:16.134Z,99.90
2019-02-28T06:12:45.064Z,99.90
2019-02-28T06:15:17.505Z,99.90
2019-02-28T06:17:46.060Z,99.90
2019-02-28T06:20:16.943Z,99.90
2019-02-28T06:22:45.188Z,99.90
2019-02-28T06:25:22.799Z,99.90
2019-02-28T06:27:49.155Z,99.90
2019-02-28T06:30:16.653Z,99.90
2019-02-28T06:32:45.113Z,99.90
2019-02-28T06:35:17.242Z,99.90
2019-02-28T06:37:51.394Z,99.90
2019-02-28T06:40:19.940Z,99.90
2019-02-28T06:42:48.546Z,99.90
2019-02-28T06:45:18.370Z,99.90
2019-02-28T06:47:49.561Z,99.90
2019-02-28T06:50:17.329Z,99.90
2019-02-28T06:52:45.793Z,99.90
2019-02-28T06:55:27.423Z,99.90
2019-02-28T06:57:58.780Z,99.90
2019-02-28T07:00:26.153Z,99.90
2019-02-28T07:02:54.629Z,99.90
2019-02-28T07:05:25.774Z,99.90
2019-02-28T07:07:53.295Z,99.90
2019-02-28T07:10:21.773Z,99.90
2019-02-28T07:12:50.221Z,99.90
2019-02-28T07:15:23.710Z,99.90
2019-02-28T07:17:49.253Z,99.90
2019-02-28T07:20:20.724Z,99.90
2019-02-28T07:22:54.686Z,99.90
2019-02-28T07:25:19.380Z,99.90
2019-02-28T07:27:47.829Z,99.90
2019-02-28T07:30:18.749Z,99.90
2019-02-28T07:32:47.830Z,99.90
2019-02-28T07:35:16.361Z,99.90
2019-02-28T07:37:44.846Z,99.90
2019-02-28T07:40:16.970Z,99.90
2019-02-28T07:42:45.992Z,99.90
2019-02-28T07:45:15.504Z,99.90
2019-02-28T07:47:44.289Z,99.90
2019-02-28T07:50:14.844Z,99.90
2019-02-28T07:52:43.632Z,99.90
2019-02-28T07:55:17.317Z,99.90
2019-02-28T07:57:51.234Z,99.90
2019-02-28T08:00:21.288Z,99.90
2019-02-28T08:02:50.075Z,99.90
2019-02-28T08:05:18.763Z,99.90
2019-02-28T08:07:51.972Z,99.90
2019-02-28T08:10:25.894Z,99.90
2019-02-28T08:12:54.359Z,99.90
2019-02-28T08:15:24.251Z,99.80
2019-02-28T08:17:52.875Z,99.80
2019-02-28T08:20:21.684Z,99.90
2019-02-28T08:22:50.301Z,99.70
2019-02-28T08:25:18.748Z,99.40
2019-02-28T08:27:47.364Z,99.30
2019-02-28T08:30:19.589Z,99.20
2019-02-28T08:32:48.787Z,98.80
2019-02-28T08:35:17.337Z,98.90
2019-02-28T08:37:45.777Z,98.80
2019-02-28T08:40:20.159Z,98.50
2019-02-28T08:42:49.971Z,98.60
2019-02-28T08:45:18.565Z,98.50
2019-02-28T08:47:47.086Z,98.40
2019-02-28T08:50:26.043Z,98.40
2019-02-28T08:53:05.073Z,98.30
2019-02-28T08:55:33.660Z,98.20
2019-02-28T08:58:06.228Z,98.00
2019-02-28T09:00:33.258Z,97.80
2019-02-28T09:03:02.235Z,97.70
2019-02-28T09:05:30.684Z,97.70
2019-02-28T09:07:59.134Z,97.60
2019-02-28T09:10:27.923Z,97.90
2019-02-28T09:12:56.439Z,97.60
2019-02-28T09:15:30.177Z,97.70
2019-02-28T09:17:58.214Z,97.60
2019-02-28T09:20:25.488Z,97.40
2019-02-28T09:22:53.931Z,97.40
2019-02-28T09:25:23.754Z,97.40
2019-02-28T09:27:52.440Z,97.30
2019-02-28T09:30:33.328Z,97.00
2019-02-28T09:33:01.772Z,97.30
2019-02-28T09:35:30.219Z,97.20
2019-02-28T09:38:03.232Z,97.30
2019-02-28T09:40:30.611Z,97.00
2019-02-28T09:42:59.217Z,97.50
2019-02-28T09:45:32.783Z,97.20
2019-02-28T09:48:02.331Z,97.20
2019-02-28T09:50:33.026Z,97.20
2019-02-28T09:53:01.340Z,97.10
2019-02-28T09:55:34.147Z,96.90
2019-02-28T09:57:59.976Z,96.50
2019-02-28T10:00:29.088Z,96.20
2019-02-28T10:02:57.611Z,95.90
2019-02-28T10:05:26.110Z,95.80
2019-02-28T10:07:54.648Z,95.60
2019-02-28T10:10:25.472Z,95.30
2019-02-28T10:12:53.916Z,94.80
2019-02-28T10:15:23.233Z,94.80
2019-02-28T10:17:51.839Z,93.80
2019-02-28T10:20:28.541Z,93.40
2019-02-28T10:22:57.518Z,93.20
2019-02-28T10:25:26.050Z,92.50
2019-02-28T10:27:54.986Z,91.60
2019-02-28T10:30:31.868Z,91.30
2019-02-28T10:32:55.747Z,91.20
2019-02-28T10:35:24.301Z,91.50
2019-02-28T10:37:57.347Z,90.90
2019-02-28T10:40:27.029Z,90.90
2019-02-28T10:42:55.576Z,90.90
2019-02-28T10:45:24.924Z,90.40
2019-02-28T10:47:53.612Z,90.20
2019-02-28T10:50:33.309Z,89.00
2019-02-28T10:53:03.986Z,89.00
2019-02-28T10:55:31.104Z,89.00
2019-02-28T10:57:59.890Z,89.80
2019-02-28T11:00:38.828Z,89.70
2019-02-28T11:03:31.746Z,89.40
2019-02-28T11:05:58.476Z,90.00
2019-02-28T11:08:26.984Z,90.30
2019-02-28T11:10:55.523Z,91.40
2019-02-28T11:13:24.192Z,93.70
2019-02-28T11:15:54.412Z,95.00
2019-02-28T11:18:22.929Z,96.20
2019-02-28T11:20:51.643Z,96.70
2019-02-28T11:23:21.825Z,96.70
2019-02-28T11:25:50.367Z,96.90
2019-02-28T11:28:19.467Z,97.10
2019-02-28T11:30:49.312Z,97.20
2019-02-28T11:33:18.847Z,97.60
2019-02-28T11:35:47.286Z,98.10
2019-02-28T11:38:21.719Z,98.10
2019-02-28T11:40:57.086Z,98.60
2019-02-28T11:43:20.354Z,98.20
2019-02-28T11:45:49.007Z,97.80
2019-02-28T11:48:20.571Z,97.60
2019-02-28T11:50:49.192Z,97.30
2019-02-28T11:53:19.112Z,97.30
2019-02-28T11:55:47.988Z,97.10
2019-02-28T11:58:35.784Z,97.00
2019-02-28T12:01:09.969Z,97.30
2019-02-28T12:03:35.532Z,96.90
2019-02-28T12:06:06.750Z,97.10
2019-02-28T12:08:35.091Z,97.00
2019-02-28T12:11:03.528Z,96.50
2019-02-28T12:13:31.971Z,96.30
2019-02-28T12:16:00.452Z,95.90
2019-02-28T12:18:28.896Z,95.80
2019-02-28T12:20:58.610Z,95.20
2019-02-28T12:23:27.601Z,95.30
2019-02-28T12:25:56.045Z,95.60
2019-02-28T12:28:24.505Z,95.80
2019-02-28T12:30:53.265Z,95.80
2019-02-28T12:33:23.359Z,95.70
2019-02-28T12:35:52.144Z,95.80
2019-02-28T12:38:20.616Z,96.50
2019-02-28T12:40:49.542Z,96.30
2019-02-28T12:43:18.224Z,96.00
2019-02-28T12:45:47.430Z,95.50
2019-02-28T12:48:16.444Z,94.90
2019-02-28T12:50:44.979Z,93.90
2019-02-28T12:53:13.457Z,92.90
2019-02-28T12:55:41.980Z,92.40
2019-02-28T12:58:10.438Z,92.30
2019-02-28T13:00:43.668Z,90.80
2019-02-28T13:03:19.448Z,91.50
2019-02-28T13:05:43.408Z,91.10
2019-02-28T13:08:11.950Z,91.30
2019-02-28T13:10:42.089Z,90.70
2019-02-28T13:13:10.720Z,91.50
2019-02-28T13:15:39.357Z,90.90
2019-02-28T13:18:09.376Z,91.30
2019-02-28T13:20:41.059Z,91.60
2019-02-28T13:23:09.533Z,91.90
2019-02-28T13:25:38.039Z,92.10
2019-02-28T13:28:07.845Z,92.20
2019-02-28T13:30:39.879Z,91.40
2019-02-28T13:33:06.681Z,91.60
2019-02-28T13:35:54.510Z,91.40
2019-02-28T13:38:23.026Z,90.90
2019-02-28T13:40:51.463Z,91.10
2019-02-28T13:43:22.649Z,90.20
2019-02-28T13:45:50.564Z,89.00
2019-02-28T13:48:26.066Z,89.00
2019-02-28T13:50:50.660Z,88.60
2019-02-28T13:53:19.177Z,89.50
2019-02-28T13:55:47.711Z,89.80
2019-02-28T13:58:17.659Z,89.00
2019-02-28T14:00:46.677Z,89.70
2019-02-28T14:03:16.951Z,89.80
2019-02-28T14:05:48.051Z,89.60
2019-02-28T14:08:16.661Z,90.00
2019-02-28T14:10:45.273Z,86.60
2019-02-28T14:13:13.970Z,86.40
2019-02-28T14:15:48.123Z,86.00
2019-02-28T14:18:17.046Z,86.40
2019-02-28T14:20:45.519Z,88.30
2019-02-28T14:23:17.282Z,87.80
2019-02-28T14:25:44.647Z,88.30
2019-02-28T14:28:13.249Z,87.30
2019-02-28T14:30:41.768Z,86.50
2019-02-28T14:33:10.292Z,86.90
2019-02-28T14:35:39.030Z,86.20
2019-02-28T14:38:07.527Z,86.30
2019-02-28T14:40:36.206Z,86.70
2019-02-28T14:43:04.896Z,86.30
2019-02-28T14:45:43.757Z,86.30
2019-02-28T14:48:12.544Z,86.10
2019-02-28T14:50:41.123Z,85.70
2019-02-28T14:53:13.108Z,85.70
2019-02-28T14:55:39.900Z,84.60
2019-02-28T14:58:08.488Z,86.00
2019-02-28T15:00:41.054Z,85.60
2019-02-28T15:03:07.715Z,86.00
2019-02-28T15:05:41.160Z,85.20
2019-02-28T15:08:11.917Z,86.20
2019-02-28T15:10:40.258Z,85.90
2019-02-28T15:13:08.945Z,86.00
2019-02-28T15:15:37.532Z,84.90
2019-02-28T15:18:06.066Z,85.70
2019-02-28T15:20:34.584Z,86.40
2019-02-28T15:23:03.103Z,84.70
2019-02-28T15:25:31.832Z,83.20
2019-02-28T15:28:00.347Z,83.90
2019-02-28T15:30:39.925Z,85.10
2019-02-28T15:33:08.438Z,85.70
2019-02-28T15:35:37.055Z,85.60
2019-02-28T15:38:08.755Z,85.70
2019-02-28T15:40:44.163Z,85.30
2019-02-28T15:43:16.949Z,85.60
2019-02-28T15:45:42.829Z,86.10
2019-02-28T15:48:11.336Z,86.80
2019-02-28T15:50:39.805Z,87.40
2019-02-28T15:53:11.362Z,87.50
2019-02-28T15:55:39.044Z,88.00
2019-02-28T15:58:07.582Z,88.50
2019-02-28T16:00:36.998Z,89.30
2019-02-28T16:03:05.894Z,89.50
2019-02-28T16:05:34.438Z,90.00
2019-02-28T16:08:09.026Z,90.20
2019-02-28T16:10:36.999Z,90.30
2019-02-28T16:13:07.006Z,90.90
2019-02-28T16:15:35.768Z,91.20
2019-02-28T16:18:05.015Z,91.40
2019-02-28T16:20:33.478Z,91.80
2019-02-28T16:23:02.000Z,92.90
2019-02-28T16:25:35.985Z,94.40
2019-02-28T16:28:26.168Z,94.80
2019-02-28T16:30:54.611Z,95.30
2019-02-28T16:33:25.462Z,95.70
2019-02-28T16:35:54.013Z,95.50
2019-02-28T16:38:22.523Z,95.90
2019-02-28T16:40:50.975Z,95.70
2019-02-28T16:43:20.813Z,95.60
2019-02-28T16:45:50.785Z,95.70
2019-02-28T16:48:19.293Z,95.80
2019-02-28T16:50:50.730Z,96.00
2019-02-28T16:53:18.104Z,96.30
2019-02-28T16:55:46.547Z,96.10
2019-02-28T16:58:15.039Z,96.80
2019-02-28T17:00:46.278Z,97.30
2019-02-28T17:03:15.854Z,97.80
2019-02-28T17:05:44.053Z,98.20
2019-02-28T17:08:15.621Z,98.70
2019-02-28T17:10:43.379Z,99.00
2019-02-28T17:13:17.491Z,98.60
2019-02-28T17:16:01.445Z,98.30
2019-02-28T17:18:34.296Z,98.50
2019-02-28T17:21:02.740Z,98.60
2019-02-28T17:23:33.693Z,98.50
2019-02-28T17:26:01.579Z,98.60
2019-02-28T17:31:44.593Z,99.00
2019-02-28T17:34:14.630Z,99.60
2019-02-28T17:36:44.162Z,99.70
2019-02-28T17:39:14.840Z,99.70
2019-02-28T17:41:43.525Z,99.90
2019-02-28T17:44:18.376Z,99.70
2019-02-28T17:46:49.950Z,99.40
2019-02-28T17:49:54.720Z,99.70
2019-02-28T17:53:02.331Z,99.60
2019-02-28T17:55:36.645Z,99.30
2019-02-28T17:58:27.502Z,99.30
2019-02-28T18:01:19.262Z,99.40
2019-02-28T18:04:38.752Z,99.40
2019-02-28T18:07:28.705Z,99.40
2019-02-28T18:10:17.154Z,98.80
2019-02-28T18:12:54.804Z,98.70
2019-02-28T18:15:38.116Z,98.70
2019-02-28T18:18:21.500Z,98.40
2019-02-28T18:21:20.266Z,97.90
2019-02-28T18:24:15.772Z,97.80
2019-02-28T18:27:38.438Z,97.60
2019-02-28T18:30:36.766Z,97.30
2019-02-28T18:33:06.773Z,97.20
2019-02-28T18:35:35.592Z,96.70
2019-02-28T18:38:04.130Z,96.30
2019-02-28T18:40:32.593Z,96.20
2019-02-28T18:43:01.100Z,95.90
2019-02-28T18:45:29.573Z,95.90
2019-02-28T18:47:58.011Z,95.50
2019-02-28T18:50:26.544Z,95.70
2019-02-28T18:52:55.021Z,95.50
2019-02-28T18:55:23.464Z,95.40
2019-02-28T18:57:51.928Z,95.70
2019-02-28T19:00:21.520Z,95.90
2019-02-28T19:02:50.024Z,96.00
2019-02-28T19:05:18.470Z,96.20
2019-02-28T19:07:47.017Z,96.20
2019-02-28T19:10:15.538Z,96.40
2019-02-28T19:12:43.984Z,96.50
2019-02-28T19:15:15.996Z,96.50
2019-02-28T19:17:44.509Z,96.70
2019-02-28T19:20:13.088Z,96.70
2019-02-28T19:22:41.629Z,96.80
2019-02-28T19:25:11.721Z,96.80
2019-02-28T19:27:40.165Z,96.80
2019-02-28T19:30:13.644Z,97.00
2019-02-28T19:32:42.087Z,97.00
2019-02-28T19:35:10.677Z,97.20
2019-02-28T19:37:39.219Z,97.10
2019-02-28T19:40:14.248Z,97.40
2019-02-28T19:42:42.962Z,97.70
2019-02-28T19:45:14.619Z,97.70
2019-02-28T19:47:43.085Z,98.00
2019-02-28T19:50:11.870Z,98.10
2019-02-28T19:52:40.481Z,98.20
2019-02-28T19:55:15.471Z,98.10
2019-02-28T19:57:44.059Z,98.30
2019-02-28T20:00:19.827Z,98.10
2019-02-28T20:02:48.417Z,98.20
2019-02-28T20:05:16.944Z,98.10
2019-02-28T20:07:45.482Z,98.20
2019-02-28T20:10:16.436Z,98.20
2019-02-28T20:12:45.021Z,98.00
2019-02-28T20:15:15.533Z,97.80
2019-02-28T20:17:44.212Z,97.50
2019-02-28T20:20:21.601Z,97.20
2019-02-28T20:22:50.176Z,97.30
2019-02-28T20:25:18.701Z,97.30
2019-02-28T20:27:47.241Z,97.60
2019-02-28T20:30:37.946Z,97.80
2019-02-28T20:33:06.568Z,97.90
2019-02-28T20:35:35.021Z,98.00
2019-02-28T20:38:03.744Z,98.10
2019-02-28T20:40:36.608Z,98.10
2019-02-28T20:43:05.368Z,98.20
2019-02-28T20:45:33.822Z,98.20
2019-02-28T20:48:04.179Z,97.90
2019-02-28T20:50:54.011Z,97.60
2019-02-28T20:53:22.585Z,97.50
2019-02-28T20:55:51.164Z,97.10
2019-02-28T20:58:19.610Z,96.90
2019-02-28T21:00:48.079Z,97.00
2019-02-28T21:03:16.526Z,97.40
2019-02-28T21:05:45.038Z,97.70
2019-02-28T21:08:13.577Z,98.00
2019-02-28T21:10:42.024Z,98.10
2019-02-28T21:13:10.499Z,98.20
2019-02-28T21:15:39.038Z,98.40
2019-02-28T21:18:07.494Z,98.60
2019-02-28T21:20:35.976Z,99.10
2019-02-28T21:23:04.513Z,98.80
2019-02-28T21:25:32.969Z,98.90
2019-02-28T21:28:01.432Z,99.00
2019-02-28T21:30:29.995Z,99.10
2019-02-28T21:32:58.451Z,99.00
2019-02-28T21:35:27.643Z,99.00
2019-02-28T21:37:56.106Z,99.10
2019-02-28T21:40:25.156Z,99.00
2019-02-28T21:42:53.625Z,99.10
2019-02-28T21:45:24.708Z,99.20
2019-02-28T21:47:52.384Z,99.40
2019-02-28T21:50:20.999Z,99.60
2019-02-28T21:52:50.380Z,99.60
2019-02-28T21:55:18.935Z,99.40
2019-02-28T21:57:47.555Z,99.50
2019-02-28T22:00:21.522Z,99.50
2019-02-28T22:02:50.115Z,99.30
2019-02-28T22:05:18.631Z,99.10
2019-02-28T22:07:47.199Z,99.20
2019-02-28T22:10:16.854Z,99.00
2019-02-28T22:12:45.384Z,98.90
2019-02-28T22:15:16.484Z,99.00
2019-02-28T22:17:44.993Z,98.70
2019-02-28T22:20:14.686Z,98.70
2019-02-28T22:22:43.247Z,98.60
2019-02-28T22:25:13.329Z,98.50
2019-02-28T22:27:41.868Z,98.50
2019-02-28T22:30:39.664Z,98.70
2019-02-28T22:33:25.937Z,98.70
2019-02-28T22:35:56.081Z,98.90
2019-02-28T22:38:24.537Z,99.10
2019-02-28T22:40:53.051Z,99.30
2019-02-28T22:43:21.522Z,99.40
2019-02-28T22:45:49.980Z,99.30
2019-02-28T22:48:18.440Z,99.30
2019-02-28T22:50:46.982Z,99.50
2019-02-28T22:53:15.424Z,99.90
2019-02-28T22:55:44.599Z,99.80
2019-02-28T22:58:13.157Z,99.90
2019-02-28T23:03:34.240Z,99.90
2019-02-28T23:06:03.052Z,99.90
2019-02-28T23:08:31.577Z,99.90
2019-02-28T23:11:20.906Z,99.90
2019-02-28T23:13:49.444Z,99.90
2019-02-28T23:16:18.072Z,99.90
2019-02-28T23:18:46.546Z,99.90
2019-02-28T23:21:14.995Z,99.90
2019-02-28T23:23:43.515Z,99.90
2019-02-28T23:26:13.367Z,99.90
2019-02-28T23:28:45.202Z,99.90
2019-02-28T23:31:22.812Z,99.90
2019-02-28T23:34:00.941Z,99.90
2019-02-28T23:36:22.654Z,99.90
2019-02-28T23:38:51.228Z,99.90
2019-02-28T23:41:19.688Z,99.90
2019-02-28T23:43:48.167Z,99.90
2019-02-28T23:46:16.665Z,99.90
2019-02-28T23:48:45.121Z,99.90
2019-02-28T23:51:13.559Z,99.90
2019-02-28T23:53:42.029Z,99.90
2019-02-28T23:56:10.539Z,99.90
2019-02-28T23:58:38.979Z,99.90
